Lizella, Georgia
Current Conditions -  °F | °C
As of 6:21 AM on Sunday 23 Nov 2014 (Local Time) from KMCN Reporting Station
Light Rain Light Rain  
Wind Chill: 13°   Ceiling: 600
Heat Index: 13°   Visibility: 4mi
Dew Point: 13°   Wind: 10mph
Humidity: 100%   Direction: 70°ENE
Pressure: 30.02"   Gusts: NA
Location:  32.81°N, 83.82°W
Report Text: KMCN 231121Z AUTO 07009KT 4SM -RA BR BKN006 OVC025 13/13 A3002 RMK AO2 P0011 TSNO
Loading
Personal Weather Stations






























Interactive Weather Map New forecast layout! Learn more

10-Day Weather Forecast

Advertisements
Track Severe Weather on mobile